createdAt,value
2023-04-17T00:03:51.458Z,17.68
2023-04-17T00:08:55.174Z,17.77
2023-04-17T00:14:00.511Z,17.93
2023-04-17T00:19:04.183Z,18.00
2023-04-17T00:24:08.465Z,17.92
2023-04-17T00:29:13.925Z,17.77
2023-04-17T00:34:17.601Z,17.65
2023-04-17T00:39:21.267Z,17.61
2023-04-17T00:44:26.631Z,17.38
2023-04-17T00:49:30.875Z,17.22
2023-04-17T00:54:34.750Z,17.24
2023-04-17T00:59:40.822Z,17.24
2023-04-17T01:04:44.520Z,17.10
2023-04-17T01:09:48.143Z,17.01
2023-04-17T01:14:53.615Z,16.80
2023-04-17T01:19:57.917Z,16.67
2023-04-17T01:25:03.192Z,16.42
2023-04-17T01:30:07.865Z,16.24
2023-04-17T01:35:11.943Z,16.18
2023-04-17T01:40:17.410Z,16.12
2023-04-17T01:45:21.252Z,16.06
2023-04-17T01:50:24.942Z,15.89
2023-04-17T01:55:30.222Z,15.53
2023-04-17T02:00:33.888Z,15.57
2023-04-17T02:05:37.493Z,15.10
2023-04-17T02:10:43.053Z,14.88
2023-04-17T02:15:46.716Z,14.58
2023-04-17T02:20:50.333Z,14.27
2023-04-17T02:25:55.621Z,13.83
2023-04-17T02:30:59.764Z,13.84
2023-04-17T02:36:03.572Z,13.84
2023-04-17T02:41:08.892Z,13.62
2023-04-17T02:46:12.661Z,13.54
2023-04-17T02:51:16.372Z,13.51
2023-04-17T02:56:21.625Z,13.40
2023-04-17T03:01:25.361Z,13.27
2023-04-17T03:06:29.157Z,13.09
2023-04-17T03:11:34.556Z,12.99
2023-04-17T03:16:38.251Z,12.75
2023-04-17T03:21:41.932Z,12.56
2023-04-17T03:26:48.087Z,12.55
2023-04-17T03:31:51.047Z,12.54
2023-04-17T03:36:54.676Z,12.81
2023-04-17T03:41:59.916Z,12.79
2023-04-17T03:47:03.576Z,12.91
2023-04-17T03:52:07.199Z,12.93
2023-04-17T03:57:12.422Z,12.84
2023-04-17T04:02:16.127Z,12.86
2023-04-17T04:07:19.860Z,12.84
2023-04-17T04:12:25.639Z,12.80
2023-04-17T04:17:29.282Z,12.96
2023-04-17T04:22:32.908Z,12.88
2023-04-17T04:27:39.121Z,12.96
2023-04-17T04:32:42.801Z,13.05
2023-04-17T04:37:46.431Z,13.07
2023-04-17T04:42:51.784Z,13.14
2023-04-17T04:47:55.492Z,13.10
2023-04-17T04:52:59.094Z,13.05
2023-04-17T04:58:05.204Z,12.83
2023-04-17T05:03:09.012Z,12.63
2023-04-17T05:08:12.800Z,12.50
2023-04-17T05:13:18.086Z,12.64
2023-04-17T05:18:21.678Z,12.79
2023-04-17T05:23:25.319Z,12.78
2023-04-17T05:28:30.572Z,12.78
2023-04-17T05:33:34.156Z,12.83
2023-04-17T05:38:37.795Z,12.89
2023-04-17T05:43:43.071Z,12.89
2023-04-17T05:48:46.695Z,12.98
2023-04-17T05:53:50.276Z,12.98
2023-04-17T05:58:55.550Z,13.00
2023-04-17T06:04:00.002Z,12.95
2023-04-17T06:09:04.492Z,12.86
2023-04-17T06:14:09.797Z,12.79
2023-04-17T06:19:13.627Z,12.87
2023-04-17T06:24:17.577Z,12.88
2023-04-17T06:29:22.832Z,12.89
2023-04-17T06:34:26.511Z,12.82
2023-04-17T06:39:30.112Z,12.87
2023-04-17T06:44:35.499Z,12.77
2023-04-17T06:49:39.113Z,12.69
2023-04-17T06:54:42.720Z,12.69
2023-04-17T06:59:48.071Z,12.67
2023-04-17T07:04:51.759Z,12.49
2023-04-17T07:09:55.419Z,12.31
2023-04-17T07:15:00.982Z,12.43
2023-04-17T07:20:05.949Z,12.27
2023-04-17T07:25:09.992Z,12.15
2023-04-17T07:30:15.440Z,12.28
2023-04-17T07:35:19.243Z,12.43
2023-04-17T07:40:23.063Z,12.48
2023-04-17T07:45:29.254Z,12.41
2023-04-17T07:50:33.634Z,12.50
2023-04-17T07:55:37.303Z,12.45
2023-04-17T08:00:42.663Z,12.47
2023-04-17T08:05:46.323Z,12.47
2023-04-17T08:10:49.912Z,12.46
2023-04-17T08:15:55.172Z,12.47
2023-04-17T08:20:58.878Z,12.39
2023-04-17T08:26:02.498Z,12.34
2023-04-17T08:31:08.882Z,12.38
2023-04-17T08:36:12.534Z,12.44
2023-04-17T08:41:21.495Z,12.43
2023-04-17T08:46:27.767Z,12.36
2023-04-17T08:51:31.513Z,12.37
2023-04-17T08:56:35.173Z,12.32
2023-04-17T09:01:40.461Z,12.28
2023-04-17T09:06:53.394Z,12.21
2023-04-17T09:12:20.737Z,12.18
2023-04-17T09:17:35.556Z,12.08
2023-04-17T09:22:39.983Z,12.06
2023-04-17T09:27:43.622Z,11.99
2023-04-17T09:32:48.955Z,11.96
2023-04-17T09:37:53.672Z,11.91
2023-04-17T09:42:59.376Z,11.84
2023-04-17T09:48:07.487Z,11.82
2023-04-17T09:53:11.253Z,11.76
2023-04-17T09:58:15.221Z,11.67
2023-04-17T10:03:21.578Z,11.57
2023-04-17T10:08:25.550Z,11.45
2023-04-17T10:13:29.902Z,11.31
2023-04-17T10:18:35.177Z,11.18
2023-04-17T10:23:38.785Z,11.06
2023-04-17T10:28:49.543Z,11.14
2023-04-17T10:33:55.154Z,11.15
2023-04-17T10:39:14.272Z,11.06
2023-04-17T10:44:19.671Z,11.00
2023-04-17T10:49:25.037Z,11.00
2023-04-17T10:54:32.926Z,10.97
2023-04-17T10:59:36.564Z,10.95
2023-04-17T11:04:42.013Z,11.02
2023-04-17T11:09:52.673Z,10.97
2023-04-17T11:15:03.733Z,10.94
2023-04-17T11:20:10.240Z,10.90
2023-04-17T11:25:27.626Z,10.92
2023-04-17T11:30:33.009Z,10.81
2023-04-17T11:35:40.296Z,10.74
2023-04-17T11:40:44.988Z,10.67
2023-04-17T11:45:50.533Z,10.33
2023-04-17T11:50:58.548Z,10.33
2023-04-17T11:56:15.852Z,10.27
2023-04-17T12:01:21.230Z,10.18
2023-04-17T12:06:37.270Z,10.09
2023-04-17T12:11:40.893Z,10.03
2023-04-17T12:16:44.580Z,10.17
2023-04-17T12:21:49.913Z,10.01
2023-04-17T12:26:53.617Z,9.99
2023-04-17T12:31:57.344Z,9.95
2023-04-17T12:37:03.603Z,9.90
2023-04-17T12:42:06.465Z,9.83
2023-04-17T12:47:10.083Z,9.67
2023-04-17T12:52:15.341Z,9.59
2023-04-17T12:57:19.063Z,9.42
2023-04-17T13:02:23.196Z,9.35
2023-04-17T13:07:29.576Z,9.38
2023-04-17T13:12:32.398Z,9.28
2023-04-17T13:17:36.998Z,9.27
2023-04-17T13:22:42.292Z,9.18
2023-04-17T13:27:45.910Z,9.17
2023-04-17T13:32:50.256Z,9.02
2023-04-17T13:37:55.572Z,9.02
2023-04-17T13:42:59.185Z,9.15
2023-04-17T13:48:02.824Z,9.34
2023-04-17T13:53:09.479Z,9.60
2023-04-17T13:58:14.682Z,9.78
2023-04-17T14:03:18.444Z,9.85
2023-04-17T14:08:23.925Z,9.90
2023-04-17T14:13:27.646Z,9.90
2023-04-17T14:18:31.381Z,10.02
2023-04-17T14:23:36.683Z,10.22
2023-04-17T14:28:40.563Z,10.37
2023-04-17T14:33:44.169Z,10.36
2023-04-17T14:38:50.445Z,10.45
2023-04-17T14:43:53.293Z,10.74
2023-04-17T14:48:57.049Z,10.91
2023-04-17T14:54:02.367Z,11.25
2023-04-17T14:59:06.029Z,11.41
2023-04-17T15:04:09.782Z,11.52
2023-04-17T15:09:15.468Z,11.54
2023-04-17T15:14:19.207Z,11.81
2023-04-17T15:19:22.835Z,11.86
2023-04-17T15:24:28.114Z,12.01
2023-04-17T15:29:31.807Z,11.78
2023-04-17T15:34:35.547Z,11.59
2023-04-17T15:39:41.499Z,11.58
2023-04-17T15:44:45.077Z,11.82
2023-04-17T15:49:48.703Z,11.82
2023-04-17T15:54:54.016Z,11.95
2023-04-17T15:59:57.726Z,11.89
2023-04-17T16:05:01.750Z,12.26
2023-04-17T16:10:08.425Z,12.67
2023-04-17T16:15:12.643Z,12.88
2023-04-17T16:20:16.397Z,12.91
2023-04-17T16:25:21.670Z,13.32
2023-04-17T16:30:25.257Z,13.31
2023-04-17T16:35:29.110Z,13.31
2023-04-17T16:40:34.415Z,13.25
2023-04-17T16:45:38.179Z,13.55
2023-04-17T16:50:41.849Z,13.83
2023-04-17T16:55:47.183Z,14.21
2023-04-17T17:00:50.918Z,14.56
2023-04-17T17:05:54.680Z,14.74
2023-04-17T17:11:00.036Z,15.06
2023-04-17T17:16:03.718Z,15.27
2023-04-17T17:21:07.448Z,15.48
2023-04-17T17:26:12.759Z,15.49
2023-04-17T17:31:16.401Z,15.56
2023-04-17T17:36:20.069Z,15.48
2023-04-17T17:41:25.399Z,15.86
2023-04-17T17:46:29.203Z,16.12
2023-04-17T17:51:32.951Z,16.05
2023-04-17T17:56:38.227Z,15.98
2023-04-17T18:01:41.906Z,15.83
2023-04-17T18:06:45.582Z,15.67
2023-04-17T18:11:50.842Z,15.32
2023-04-17T18:16:54.502Z,15.33
2023-04-17T18:21:58.138Z,15.43
2023-04-17T18:27:03.646Z,15.58
2023-04-17T18:32:07.327Z,15.64
2023-04-17T18:37:10.951Z,15.80
2023-04-17T18:42:16.243Z,15.84
2023-04-17T18:47:19.848Z,15.66
2023-04-17T18:52:23.700Z,15.71
2023-04-17T18:57:29.024Z,15.93
2023-04-17T19:02:32.834Z,16.35
2023-04-17T19:07:36.521Z,16.24
2023-04-17T19:12:41.782Z,16.40
2023-04-17T19:17:45.385Z,16.34
2023-04-17T19:22:49.034Z,16.22
2023-04-17T19:27:54.362Z,15.96
2023-04-17T19:32:58.138Z,16.05
2023-04-17T19:38:01.853Z,16.34
2023-04-17T19:43:08.650Z,16.51
2023-04-17T19:48:13.010Z,16.17
2023-04-17T19:53:16.603Z,16.29
2023-04-17T19:58:21.864Z,16.56
2023-04-17T20:03:26.574Z,17.15
2023-04-17T20:08:30.432Z,17.57
2023-04-17T20:13:35.704Z,17.54
2023-04-17T20:18:39.327Z,17.19
2023-04-17T20:23:42.963Z,17.20
2023-04-17T20:28:48.240Z,17.77
2023-04-17T20:33:51.893Z,17.84
2023-04-17T20:38:55.528Z,17.75
2023-04-17T20:44:01.570Z,18.04
2023-04-17T20:49:05.204Z,18.34
2023-04-17T20:54:08.809Z,18.28
2023-04-17T20:59:14.075Z,18.17
2023-04-17T21:04:17.893Z,18.00
2023-04-17T21:09:21.613Z,17.49
2023-04-17T21:14:26.893Z,18.00
2023-04-17T21:19:30.500Z,18.10
2023-04-17T21:24:34.363Z,18.54
2023-04-17T21:29:39.576Z,18.39
2023-04-17T21:34:43.172Z,18.00
2023-04-17T21:39:46.762Z,17.56
2023-04-17T21:44:52.034Z,17.25
2023-04-17T21:49:55.641Z,17.18
2023-04-17T21:54:59.246Z,16.81
2023-04-17T22:00:05.867Z,17.04
2023-04-17T22:05:09.902Z,17.80
2023-04-17T22:10:13.509Z,17.66
2023-04-17T22:15:18.892Z,17.97
2023-04-17T22:20:22.483Z,17.96
2023-04-17T22:25:26.103Z,18.21
2023-04-17T22:30:31.383Z,17.83
2023-04-17T22:35:35.096Z,17.61
2023-04-17T22:40:38.712Z,17.76
2023-04-17T22:46:09.182Z,18.13
2023-04-17T22:51:12.859Z,17.87
2023-04-17T22:56:16.461Z,17.72
2023-04-17T23:01:21.750Z,17.66
2023-04-17T23:06:25.416Z,17.11
2023-04-17T23:11:31.569Z,17.10
2023-04-17T23:16:36.857Z,16.69
2023-04-17T23:21:40.472Z,16.65
2023-04-17T23:26:44.075Z,16.76
2023-04-17T23:31:49.463Z,16.67
2023-04-17T23:36:53.138Z,16.56
2023-04-17T23:41:56.723Z,16.56
2023-04-17T23:47:04.171Z,16.74
2023-04-17T23:52:07.979Z,16.79
2023-04-17T23:57:11.585Z,16.74
